Tropical Cyclones
[Index]
Main Index Home Page Stock Weather Photos Extreme Storms Discussion Storm News and Storm Chasing Reports Tropical Cyclones / Hurricanes / Typhoons Weather Data and Links Wild Fires / Bushfires Weather Observation Techniques Weather Picture Catalogue Tornado Pictures and Reports Stock Video Footage and DVDs for sale
Season 2003-2004 Tropical Cyclone JANA Track Map
Season 2003-2004 Summaries: [BoM-AU] [JTWC-AU] [JTWC-SIO] [JTWC-SPAC] [JTWC-SH]
<<- Previous TC | BoM 2003-2004 Season | Next TC ->>

click for intensity scale information  Lat/long Grid: Show Hide

 Date Labels: Show Hide

Bureau of Meteorology Tropical Cyclone Data

Name: JANA
Number: 870 / 200304_01

06 Dec 2003 00:00 UTC to 12 Dec 2003 06:00 UTC

    date/time    lat    long    hPa   cat  kts
2003-12-06 00    7.0    93.2   1005         20          
2003-12-06 06    7.2    93.8   1004         20          
2003-12-06 12    7.4    94.4   1002         25          
2003-12-06 18    7.5    95.2   1000         30          
2003-12-07 00    7.6    95.9    995    1    35          
2003-12-07 06    7.8    96.2    992    1    40          
2003-12-07 12    7.8    96.6    990    1    45          
2003-12-07 18    7.8    97.1    985    2    50          
2003-12-08 00    7.9    97.6    980    2    55          
2003-12-08 06    8.2    98.0    970    3    65          
2003-12-08 12    8.5    98.7    965    3    70          
2003-12-08 18    9.1    99.2    965    3    75          
2003-12-09 00   10.1    99.3    960    3    75          
2003-12-09 06   11.1    99.4    955    4    80          
2003-12-09 12   12.0    99.4    950    4    85          
2003-12-09 18   12.8    99.3    950    4    80          
2003-12-10 00   13.6    99.2    955    4    80          
2003-12-10 06   14.1    98.9    960    3    75          
2003-12-10 12   14.4    98.6    965    3    70          
2003-12-10 18   14.6    98.1    975    2    60          
2003-12-11 00   14.7    97.4    985    2    50          
2003-12-11 06   14.8    96.6    990    1    35          
2003-12-11 12   14.9    95.6    995    1    30          
2003-12-11 18   14.9    94.6   1000         25          
2003-12-12 00   14.8    93.8   1002         25          
2003-12-12 06   14.7    93.0   1002         25          
Winds are 10-min average.

Tropical cyclone tracks developed by Michael Bath using data from the Bureau of Meteorology and Google Maps.


[Australian Severe Weather index] [Copyright Notice] [Email Contacts] [Search This Site] [Privacy Policy]
Document: tropical_cyclone_jana.htm Updated: 29 June 2017